createdAt,value
2019-03-26T00:00:36.686Z,2.70
2019-03-26T00:03:09.208Z,2.50
2019-03-26T00:05:41.705Z,2.50
2019-03-26T00:08:14.137Z,3.00
2019-03-26T00:10:46.572Z,2.90
2019-03-26T00:13:19.029Z,5.60
2019-03-26T00:15:51.859Z,3.80
2019-03-26T00:18:24.307Z,3.30
2019-03-26T00:20:57.322Z,2.87
2019-03-26T00:23:29.994Z,2.73
2019-03-26T00:26:02.525Z,3.07
2019-03-26T00:28:34.941Z,2.90
2019-03-26T00:31:07.366Z,3.17
2019-03-26T00:33:40.122Z,5.30
2019-03-26T00:36:12.646Z,4.43
2019-03-26T00:38:45.142Z,4.25
2019-03-26T00:41:17.681Z,3.40
2019-03-26T00:43:50.099Z,2.90
2019-03-26T00:46:22.534Z,2.40
2019-03-26T00:48:55.127Z,2.67
2019-03-26T00:51:27.589Z,2.60
2019-03-26T00:54:00.099Z,2.60
2019-03-26T00:56:32.953Z,3.10
2019-03-26T00:59:05.386Z,2.93
2019-03-26T01:01:38.088Z,2.93
2019-03-26T01:04:10.620Z,3.10
2019-03-26T01:06:43.052Z,3.22
2019-03-26T01:09:15.475Z,3.13
2019-03-26T01:11:47.897Z,3.63
2019-03-26T01:14:20.380Z,3.80
2019-03-26T01:16:53.031Z,3.63
2019-03-26T01:19:25.497Z,3.43
2019-03-26T01:21:57.969Z,3.55
2019-03-26T01:24:30.409Z,3.60
2019-03-26T01:27:02.825Z,3.93
2019-03-26T01:29:35.227Z,3.52
2019-03-26T01:32:07.980Z,4.00
2019-03-26T01:34:45.875Z,3.33
2019-03-26T01:37:14.626Z,3.17
2019-03-26T01:39:47.200Z,3.30
2019-03-26T01:42:19.679Z,2.60
2019-03-26T01:44:52.126Z,3.63
2019-03-26T01:47:24.714Z,3.50
2019-03-26T01:49:57.203Z,4.03
2019-03-26T01:52:29.739Z,3.30
2019-03-26T01:55:02.256Z,3.20
2019-03-26T01:57:34.741Z,4.30
2019-03-26T02:00:07.702Z,3.23
2019-03-26T02:02:40.228Z,4.30
2019-03-26T02:05:12.643Z,3.20
2019-03-26T02:07:45.533Z,3.10
2019-03-26T02:10:18.163Z,3.50
2019-03-26T02:12:50.879Z,3.77
2019-03-26T02:15:31.243Z,4.10
2019-03-26T02:18:04.322Z,4.13
2019-03-26T02:20:36.794Z,3.67
2019-03-26T02:23:09.315Z,3.90
2019-03-26T02:25:41.816Z,4.70
2019-03-26T02:28:14.396Z,4.62
2019-03-26T02:30:46.797Z,4.10
2019-03-26T02:33:19.326Z,5.07
2019-03-26T02:35:51.816Z,5.25
2019-03-26T02:38:24.364Z,4.67
2019-03-26T02:40:56.777Z,4.23
2019-03-26T02:43:29.151Z,4.67
2019-03-26T02:46:01.839Z,4.10
2019-03-26T02:48:34.287Z,4.53
2019-03-26T02:51:06.977Z,4.30
2019-03-26T02:53:39.433Z,4.40
2019-03-26T02:56:11.943Z,4.20
2019-03-26T02:58:45.509Z,4.02
2019-03-26T03:01:18.011Z,4.70
2019-03-26T03:03:50.469Z,4.46
2019-03-26T03:06:22.962Z,4.50
2019-03-26T03:08:55.383Z,4.72
2019-03-26T03:11:27.814Z,5.03
2019-03-26T03:14:00.265Z,5.10
2019-03-26T03:16:32.767Z,5.27
2019-03-26T03:19:05.159Z,4.47
2019-03-26T03:21:37.714Z,4.97
2019-03-26T03:24:10.269Z,5.70
2019-03-26T03:26:42.675Z,5.50
2019-03-26T03:29:15.079Z,6.07
2019-03-26T03:36:52.270Z,6.00
2019-03-26T03:39:24.716Z,5.40
2019-03-26T03:41:57.136Z,6.43
2019-03-26T03:44:29.661Z,4.90
2019-03-26T03:47:04.253Z,5.10
2019-03-26T03:49:36.889Z,5.30
2019-03-26T03:52:10.522Z,5.20
2019-03-26T03:54:45.879Z,5.10
2019-03-26T03:57:20.058Z,6.20
2019-03-26T03:59:53.350Z,5.70
2019-03-26T04:02:25.842Z,5.60
2019-03-26T04:04:58.229Z,5.35
2019-03-26T04:07:30.661Z,5.30
2019-03-26T04:10:03.029Z,5.37
2019-03-26T04:12:35.569Z,5.33
2019-03-26T04:15:08.695Z,6.17
2019-03-26T04:17:41.281Z,5.70
2019-03-26T04:20:13.710Z,5.63
2019-03-26T04:22:46.112Z,5.50
2019-03-26T04:25:18.699Z,5.07
2019-03-26T04:27:51.199Z,5.70
2019-03-26T04:30:30.889Z,5.45
2019-03-26T04:33:03.408Z,4.60
2019-03-26T04:35:35.804Z,4.73
2019-03-26T04:38:08.235Z,5.40
2019-03-26T04:40:40.598Z,4.28
2019-03-26T04:43:13.416Z,5.00
2019-03-26T04:45:45.823Z,5.23
2019-03-26T04:48:18.338Z,4.50
2019-03-26T04:50:51.976Z,5.60
2019-03-26T04:53:24.641Z,4.73
2019-03-26T04:55:57.033Z,4.97
2019-03-26T04:58:29.455Z,5.60
2019-03-26T05:01:01.940Z,5.60
2019-03-26T05:03:34.659Z,5.47
2019-03-26T05:06:07.214Z,5.40
2019-03-26T05:08:39.650Z,6.00
2019-03-26T05:11:12.206Z,8.57
2019-03-26T05:13:46.047Z,9.30
2019-03-26T05:16:18.581Z,12.07
2019-03-26T05:18:51.012Z,8.60
2019-03-26T05:21:23.862Z,9.97
2019-03-26T05:23:56.284Z,10.83
2019-03-26T05:26:28.722Z,10.50
2019-03-26T05:29:01.213Z,12.30
2019-03-26T05:36:50.368Z,30.50
2019-03-26T05:39:12.163Z,20.23
2019-03-26T05:41:45.799Z,21.33
2019-03-26T05:44:18.807Z,17.92
2019-03-26T05:46:51.537Z,15.05
2019-03-26T05:49:24.117Z,14.10
2019-03-26T05:51:56.586Z,10.77
2019-03-26T05:54:29.315Z,7.70
2019-03-26T05:57:01.753Z,6.67
2019-03-26T05:59:34.306Z,6.43
2019-03-26T06:02:14.214Z,6.62
2019-03-26T06:04:40.945Z,6.50
2019-03-26T06:07:13.408Z,5.30
2019-03-26T06:09:45.868Z,6.72
2019-03-26T06:12:18.309Z,5.97
2019-03-26T06:14:50.966Z,5.87
2019-03-26T06:17:23.542Z,5.40
2019-03-26T06:19:56.023Z,6.07
2019-03-26T06:22:28.429Z,5.77
2019-03-26T06:25:01.267Z,6.23
2019-03-26T06:27:33.686Z,6.53
2019-03-26T06:30:07.319Z,5.80
2019-03-26T06:32:40.018Z,5.60
2019-03-26T06:35:12.432Z,6.70
2019-03-26T06:37:46.074Z,8.05
2019-03-26T06:40:18.843Z,9.83
2019-03-26T06:47:55.826Z,7.70
2019-03-26T06:50:28.718Z,6.43
2019-03-26T06:53:01.306Z,6.00
2019-03-26T06:55:33.755Z,5.93
2019-03-26T06:58:06.569Z,6.53
2019-03-26T07:00:38.995Z,5.87
2019-03-26T07:03:11.405Z,6.03
2019-03-26T07:05:43.834Z,5.47
2019-03-26T07:08:16.412Z,5.93
2019-03-26T07:10:49.342Z,5.27
2019-03-26T07:18:25.444Z,5.13
2019-03-26T07:20:57.851Z,4.70
2019-03-26T07:23:30.278Z,5.33
2019-03-26T07:26:02.884Z,4.60
2019-03-26T07:28:35.415Z,5.20
2019-03-26T07:31:08.097Z,4.93
2019-03-26T07:33:40.533Z,5.63
2019-03-26T07:36:12.997Z,5.03
2019-03-26T07:38:46.068Z,4.47
2019-03-26T07:41:18.527Z,5.30
2019-03-26T07:43:50.934Z,4.80
2019-03-26T07:46:23.475Z,5.30
2019-03-26T07:48:55.933Z,14.87
2019-03-26T07:51:28.666Z,10.67
2019-03-26T07:54:01.096Z,7.95
2019-03-26T07:56:33.631Z,5.50
2019-03-26T07:59:06.068Z,6.20
2019-03-26T08:01:38.558Z,5.33
2019-03-26T08:04:12.580Z,4.17
2019-03-26T08:06:46.669Z,47.27
2019-03-26T08:09:19.325Z,36.80
2019-03-26T08:11:51.789Z,12.10
2019-03-26T08:14:24.542Z,7.23
2019-03-26T08:16:57.101Z,4.80
2019-03-26T08:19:29.541Z,4.03
2019-03-26T08:22:02.135Z,4.40
2019-03-26T08:24:34.792Z,4.27
2019-03-26T08:27:07.353Z,4.33
2019-03-26T08:29:39.741Z,4.00
2019-03-26T08:32:12.370Z,4.20
2019-03-26T08:34:46.857Z,3.83
2019-03-26T08:37:19.449Z,3.43
2019-03-26T08:39:51.891Z,3.63
2019-03-26T08:47:29.279Z,3.80
2019-03-26T08:50:01.867Z,3.90
2019-03-26T08:52:34.474Z,3.50
2019-03-26T08:55:08.189Z,3.50
2019-03-26T08:57:40.749Z,4.23
2019-03-26T09:00:14.383Z,3.47
2019-03-26T09:02:46.824Z,3.93
2019-03-26T09:05:19.287Z,3.30
2019-03-26T09:07:52.187Z,3.60
2019-03-26T09:10:24.677Z,4.60
2019-03-26T09:12:57.163Z,4.30
2019-03-26T09:15:29.899Z,3.17
2019-03-26T09:18:02.384Z,3.02
2019-03-26T09:20:34.865Z,3.70
2019-03-26T09:23:07.894Z,3.40
2019-03-26T09:25:40.493Z,3.53
2019-03-26T09:28:12.965Z,3.13
2019-03-26T09:30:46.437Z,3.35
2019-03-26T09:33:19.295Z,3.33
2019-03-26T09:35:51.914Z,3.20
2019-03-26T09:38:37.935Z,3.10
2019-03-26T09:40:58.814Z,3.33
2019-03-26T09:43:31.271Z,5.93
2019-03-26T09:46:03.830Z,3.87
2019-03-26T09:48:36.644Z,3.10
2019-03-26T09:51:10.778Z,3.20
2019-03-26T09:53:43.750Z,3.30
2019-03-26T09:56:28.344Z,3.20
2019-03-26T09:58:51.086Z,2.98
2019-03-26T10:01:23.536Z,4.40
2019-03-26T10:03:55.935Z,5.50
2019-03-26T10:06:28.407Z,3.40
2019-03-26T10:09:30.392Z,28.73
2019-03-26T10:12:02.841Z,14.27
2019-03-26T10:14:35.289Z,6.23
2019-03-26T10:17:07.826Z,8.10
2019-03-26T10:19:40.289Z,8.80
2019-03-26T10:22:12.904Z,3.70
2019-03-26T10:24:47.040Z,4.47
2019-03-26T10:27:19.576Z,3.90
2019-03-26T10:29:52.045Z,3.23
2019-03-26T10:32:24.528Z,3.95
2019-03-26T10:34:57.066Z,3.80
2019-03-26T10:37:29.978Z,3.20
2019-03-26T10:40:04.540Z,3.37
2019-03-26T10:42:37.354Z,3.40
2019-03-26T10:45:10.897Z,3.23
2019-03-26T10:47:43.416Z,3.77
2019-03-26T10:50:16.269Z,6.57
2019-03-26T10:52:48.879Z,11.70
2019-03-26T10:55:21.354Z,5.17
2019-03-26T10:57:54.204Z,4.60
2019-03-26T11:00:27.013Z,6.07
2019-03-26T11:02:59.591Z,11.57
2019-03-26T11:05:32.122Z,10.27
2019-03-26T11:08:04.608Z,8.40
2019-03-26T11:10:37.109Z,7.03
2019-03-26T11:13:10.003Z,5.43
2019-03-26T11:15:42.450Z,6.27
2019-03-26T11:18:14.924Z,5.50
2019-03-26T11:20:47.378Z,5.77
2019-03-26T11:23:20.463Z,5.97
2019-03-26T11:25:52.967Z,7.60
2019-03-26T11:28:25.842Z,7.27
2019-03-26T11:30:58.327Z,6.43
2019-03-26T11:33:30.789Z,5.53
2019-03-26T11:36:03.274Z,6.20
2019-03-26T11:38:35.733Z,5.92
2019-03-26T11:41:08.157Z,6.13
2019-03-26T11:43:41.369Z,6.07
2019-03-26T11:46:13.851Z,5.23
2019-03-26T11:48:46.747Z,6.45
2019-03-26T11:51:19.405Z,9.20
2019-03-26T11:53:51.925Z,7.40
2019-03-26T11:56:24.414Z,5.70
2019-03-26T11:58:57.573Z,6.00
2019-03-26T12:01:30.692Z,5.53
2019-03-26T12:04:04.740Z,5.80
2019-03-26T12:06:37.217Z,5.30
2019-03-26T12:09:10.407Z,4.77
2019-03-26T12:11:43.084Z,5.77
2019-03-26T12:14:16.250Z,4.83
2019-03-26T12:16:48.921Z,5.50
2019-03-26T12:19:22.085Z,5.33
2019-03-26T12:21:54.498Z,5.13
2019-03-26T12:24:26.971Z,5.27
2019-03-26T12:26:59.440Z,3.80
2019-03-26T12:29:32.623Z,4.40
2019-03-26T12:32:05.328Z,4.43
2019-03-26T12:34:38.040Z,4.50
2019-03-26T12:37:10.508Z,5.57
2019-03-26T12:39:58.617Z,4.25
2019-03-26T12:42:21.565Z,5.87
2019-03-26T12:44:54.871Z,4.20
2019-03-26T12:47:27.475Z,4.63
2019-03-26T12:50:00.651Z,4.83
2019-03-26T12:52:33.313Z,4.70
2019-03-26T12:55:05.935Z,5.30
2019-03-26T12:57:38.502Z,4.07
2019-03-26T13:00:11.424Z,4.63
2019-03-26T13:02:44.360Z,5.22
2019-03-26T13:05:16.898Z,6.70
2019-03-26T13:07:49.784Z,6.30
2019-03-26T13:15:01.480Z,7.20
2019-03-26T13:17:33.919Z,7.83
2019-03-26T13:20:07.487Z,6.77
2019-03-26T13:22:40.270Z,7.60
2019-03-26T13:25:12.828Z,8.47
2019-03-26T13:27:45.406Z,8.70
2019-03-26T13:30:19.709Z,10.80
2019-03-26T13:32:52.172Z,7.37
2019-03-26T13:35:24.707Z,7.20
2019-03-26T13:37:57.908Z,8.65
2019-03-26T13:40:30.344Z,7.50
2019-03-26T13:43:02.952Z,6.90
2019-03-26T13:45:35.392Z,6.90
2019-03-26T13:48:07.864Z,7.67
2019-03-26T13:50:40.415Z,8.17
2019-03-26T13:53:13.561Z,7.27
2019-03-26T13:55:47.201Z,7.52
2019-03-26T13:58:19.650Z,7.40
2019-03-26T14:00:52.140Z,6.78
2019-03-26T14:03:24.606Z,8.07
2019-03-26T14:05:57.103Z,8.00
2019-03-26T14:08:30.284Z,7.23
2019-03-26T14:11:02.721Z,7.53
2019-03-26T14:13:35.330Z,8.13
2019-03-26T14:16:07.760Z,8.27
2019-03-26T14:18:40.265Z,7.43
2019-03-26T14:21:12.925Z,7.83
2019-03-26T14:23:46.058Z,7.07
2019-03-26T14:26:18.499Z,6.20
2019-03-26T14:28:51.356Z,6.57
2019-03-26T14:31:23.901Z,8.30
2019-03-26T14:33:56.423Z,10.00
2019-03-26T14:36:28.977Z,9.10
2019-03-26T14:39:01.492Z,7.10
2019-03-26T14:41:34.084Z,9.13
2019-03-26T14:44:06.707Z,8.00
2019-03-26T14:46:39.799Z,7.10
2019-03-26T14:49:12.244Z,7.80
2019-03-26T14:51:44.877Z,6.97
2019-03-26T14:54:17.414Z,5.97
2019-03-26T14:56:49.994Z,7.00
2019-03-26T14:59:22.489Z,5.90
2019-03-26T15:01:55.333Z,6.20
2019-03-26T15:04:27.800Z,4.47
2019-03-26T15:07:00.453Z,6.37
2019-03-26T15:09:32.940Z,7.57
2019-03-26T15:12:05.529Z,9.50
2019-03-26T15:14:38.186Z,9.33
2019-03-26T15:17:11.120Z,8.70
2019-03-26T15:19:43.568Z,8.63
2019-03-26T15:22:16.058Z,7.53
2019-03-26T15:24:48.642Z,8.60
2019-03-26T15:27:21.183Z,7.53
2019-03-26T15:29:53.666Z,7.90
2019-03-26T15:32:27.161Z,6.67
2019-03-26T15:34:59.641Z,7.23
2019-03-26T15:37:32.956Z,6.60
2019-03-26T15:40:05.914Z,7.50
2019-03-26T15:42:38.405Z,6.75
2019-03-26T15:45:11.368Z,6.73
2019-03-26T15:47:44.486Z,6.60
2019-03-26T15:50:36.925Z,6.77
2019-03-26T15:53:11.706Z,6.07
2019-03-26T15:55:44.636Z,4.60
2019-03-26T15:58:17.198Z,5.17
2019-03-26T16:00:49.666Z,5.57
2019-03-26T16:03:22.958Z,5.00
2019-03-26T16:05:55.432Z,4.95
2019-03-26T16:08:28.053Z,5.50
2019-03-26T16:11:00.614Z,4.53
2019-03-26T16:13:35.743Z,4.63
2019-03-26T16:16:07.386Z,5.20
2019-03-26T16:18:40.598Z,5.00
2019-03-26T16:21:13.183Z,5.47
2019-03-26T16:23:45.695Z,5.60
2019-03-26T16:26:20.616Z,7.20
2019-03-26T16:28:52.403Z,6.58
2019-03-26T16:31:24.918Z,5.93
2019-03-26T16:33:58.192Z,6.80
2019-03-26T16:36:30.818Z,5.40
2019-03-26T16:39:04.637Z,6.33
2019-03-26T16:41:48.369Z,6.57
2019-03-26T16:44:11.495Z,5.90
2019-03-26T16:46:44.122Z,5.80
2019-03-26T16:49:17.315Z,5.97
2019-03-26T16:51:50.734Z,5.10
2019-03-26T16:54:23.262Z,6.20
2019-03-26T16:56:56.486Z,5.33
2019-03-26T16:59:29.245Z,5.70
2019-03-26T17:02:01.978Z,5.33
2019-03-26T17:04:35.558Z,6.37
2019-03-26T17:07:08.077Z,6.00
2019-03-26T17:09:40.563Z,5.50
2019-03-26T17:12:13.105Z,6.00
2019-03-26T17:14:45.717Z,4.97
2019-03-26T17:17:18.176Z,5.27
2019-03-26T17:19:51.401Z,4.80
2019-03-26T17:22:24.047Z,6.60
2019-03-26T17:24:56.561Z,5.10
2019-03-26T17:27:29.326Z,5.37
2019-03-26T17:30:02.132Z,5.28
2019-03-26T17:32:34.679Z,5.60
2019-03-26T17:35:09.228Z,5.15
2019-03-26T17:37:41.674Z,4.60
2019-03-26T17:40:14.155Z,4.60
2019-03-26T17:42:46.628Z,4.60
2019-03-26T17:45:19.155Z,4.77
2019-03-26T17:47:51.661Z,6.17
2019-03-26T17:50:24.841Z,4.50
2019-03-26T17:52:57.412Z,4.95
2019-03-26T17:55:30.303Z,5.43
2019-03-26T17:58:02.841Z,5.10
2019-03-26T18:00:48.773Z,5.30
2019-03-26T18:03:26.703Z,5.65
2019-03-26T18:05:56.147Z,5.20
2019-03-26T18:08:28.716Z,4.00
2019-03-26T18:11:01.331Z,4.57
2019-03-26T18:13:33.803Z,5.30
2019-03-26T18:16:06.633Z,4.53
2019-03-26T18:18:39.103Z,7.07
2019-03-26T18:21:12.243Z,9.37
2019-03-26T18:23:44.818Z,7.90
2019-03-26T18:26:17.348Z,8.00
2019-03-26T18:28:49.907Z,7.10
2019-03-26T18:31:22.576Z,6.67
2019-03-26T18:33:55.047Z,5.93
2019-03-26T18:36:28.373Z,7.17
2019-03-26T18:39:00.927Z,5.80
2019-03-26T18:41:33.626Z,5.40
2019-03-26T18:44:06.157Z,5.80
2019-03-26T18:46:38.639Z,8.43
2019-03-26T18:49:11.189Z,7.90
2019-03-26T18:51:43.785Z,7.30
2019-03-26T18:54:16.941Z,8.13
2019-03-26T18:56:49.630Z,5.58
2019-03-26T18:59:22.265Z,5.30
2019-03-26T19:01:54.829Z,5.55
2019-03-26T19:04:27.444Z,5.60
2019-03-26T19:07:00.041Z,5.67
2019-03-26T19:09:34.652Z,6.63
2019-03-26T19:12:07.240Z,6.43
2019-03-26T19:14:39.976Z,6.30
2019-03-26T19:17:12.754Z,6.37
2019-03-26T19:19:48.348Z,4.97
2019-03-26T19:22:20.872Z,6.57
2019-03-26T19:24:53.545Z,6.35
2019-03-26T19:27:26.077Z,5.53
2019-03-26T19:29:58.640Z,6.03
2019-03-26T19:32:31.246Z,6.40
2019-03-26T19:35:03.827Z,5.53
2019-03-26T19:37:36.349Z,5.50
2019-03-26T19:40:10.024Z,5.33
2019-03-26T19:42:42.534Z,4.93
2019-03-26T19:45:15.272Z,5.83
2019-03-26T19:47:48.859Z,6.20
2019-03-26T19:50:21.719Z,5.57
2019-03-26T19:52:54.362Z,6.20
2019-03-26T19:55:27.011Z,6.30
2019-03-26T19:57:59.544Z,5.97
2019-03-26T20:00:32.102Z,6.13
2019-03-26T20:03:04.744Z,6.08
2019-03-26T20:05:37.310Z,7.13
2019-03-26T20:08:10.234Z,6.00
2019-03-26T20:10:43.098Z,6.07
2019-03-26T20:13:24.148Z,7.03
2019-03-26T20:15:50.030Z,6.70
2019-03-26T20:18:25.289Z,7.20
2019-03-26T20:20:57.908Z,6.53
2019-03-26T20:23:30.372Z,6.57
2019-03-26T20:26:03.326Z,6.60
2019-03-26T20:28:35.882Z,7.40
2019-03-26T20:31:08.431Z,6.97
2019-03-26T20:33:42.557Z,7.30
2019-03-26T20:36:15.474Z,6.70
2019-03-26T20:38:51.422Z,7.55
2019-03-26T20:41:23.526Z,8.00
2019-03-26T20:43:56.330Z,9.80
2019-03-26T20:46:29.003Z,10.70
2019-03-26T20:49:01.525Z,9.53
2019-03-26T20:51:34.222Z,7.70
2019-03-26T20:54:06.732Z,7.57
2019-03-26T20:56:40.945Z,6.97
2019-03-26T20:59:14.316Z,7.70
2019-03-26T21:01:46.882Z,7.40
2019-03-26T21:04:19.470Z,8.07
2019-03-26T21:06:52.018Z,7.65
2019-03-26T21:09:24.492Z,8.53
2019-03-26T21:11:56.985Z,8.23
2019-03-26T21:14:29.670Z,8.00
2019-03-26T21:17:02.448Z,7.70
2019-03-26T21:19:35.230Z,6.90
2019-03-26T21:22:07.874Z,7.73
2019-03-26T21:24:40.325Z,8.00
2019-03-26T21:27:12.803Z,7.87
2019-03-26T21:29:45.475Z,8.77
2019-03-26T21:32:17.913Z,8.45
2019-03-26T21:34:50.483Z,7.20
2019-03-26T21:37:23.311Z,8.23
2019-03-26T21:39:55.940Z,7.50
2019-03-26T21:42:28.372Z,8.63
2019-03-26T21:45:00.979Z,9.20
2019-03-26T21:47:33.656Z,7.03
2019-03-26T21:50:07.444Z,8.40
2019-03-26T21:52:40.058Z,7.20
2019-03-26T21:55:13.530Z,7.20
2019-03-26T21:57:46.210Z,8.53
2019-03-26T22:00:19.326Z,8.47
2019-03-26T22:02:52.037Z,8.13
2019-03-26T22:05:24.573Z,8.27
2019-03-26T22:07:57.021Z,8.87
2019-03-26T22:10:29.498Z,10.00
2019-03-26T22:13:02.018Z,9.33
2019-03-26T22:15:34.726Z,8.60
2019-03-26T22:18:07.212Z,8.20
2019-03-26T22:20:39.758Z,8.50
2019-03-26T22:23:12.323Z,8.03
2019-03-26T22:25:44.995Z,8.97
2019-03-26T22:28:17.497Z,9.30
2019-03-26T22:30:50.130Z,10.27
2019-03-26T22:33:22.570Z,8.93
2019-03-26T22:35:56.201Z,9.25
2019-03-26T22:38:28.848Z,9.30
2019-03-26T22:41:01.385Z,8.80
2019-03-26T22:43:33.924Z,8.47
2019-03-26T22:46:06.678Z,8.27
2019-03-26T22:48:39.137Z,7.60
2019-03-26T22:51:11.781Z,7.30
2019-03-26T22:53:44.639Z,7.60
2019-03-26T22:56:17.174Z,7.75
2019-03-26T22:58:49.615Z,7.40
2019-03-26T23:01:22.171Z,7.37
2019-03-26T23:03:54.563Z,7.97
2019-03-26T23:06:27.110Z,8.50
2019-03-26T23:08:59.659Z,7.77
2019-03-26T23:11:32.329Z,7.30
2019-03-26T23:14:04.808Z,6.40
2019-03-26T23:16:37.493Z,8.03
2019-03-26T23:19:10.254Z,7.80
2019-03-26T23:21:42.719Z,7.40
2019-03-26T23:24:15.227Z,6.78
2019-03-26T23:26:47.708Z,7.80
2019-03-26T23:29:20.477Z,7.33
2019-03-26T23:31:54.083Z,7.22
2019-03-26T23:34:26.742Z,7.30
2019-03-26T23:36:59.259Z,8.28
2019-03-26T23:39:31.754Z,7.40
2019-03-26T23:42:04.222Z,6.90
2019-03-26T23:44:36.724Z,7.47
2019-03-26T23:47:09.161Z,7.27
2019-03-26T23:49:41.716Z,7.60
2019-03-26T23:52:14.793Z,7.50
2019-03-26T23:54:47.283Z,7.72
2019-03-26T23:57:19.634Z,7.33
2019-03-26T23:59:52.057Z,7.10
